Maersk Barry — OYJE2 — position and weather

sailwx.info

Track history (hours):
 
Tides and Currents Weather Stations Pressure Air Temp Water Temp Dewpoint Dewpoint Depression Visibility Wind Speed Wind Dir Waves Ship Positions

Maersk Barry

Last reported at 2016-Feb-06 10:07 UTC. Time now 2016-Feb-11 02:30 UTC.
Position N 29°21' W 094°46'.

Length 175 m; draft 7.2 m.

Type: Tanker. MMSI: 219127000.

Date/timePositionNaut miles runAvg speedWind from/ knotsBaromVisibWave heightAir tempDewpointWater temp
2016-Feb-06 10:07N 29°21' W 094°46'713.1
2016-Feb-06 09:33N 29°27' W 094°51'1212.3
2016-Feb-06 08:33N 29°38' W 094°58'10 9.7
2016-Feb-06 07:34N 29°46' W 095°04'2 0.0
2016-Feb-04 04:20N 29°45' W 095°06'0 0.0
2016-Feb-04 03:30N 29°45' W 095°06'0 0.2
2016-Feb-04 02:33N 29°45' W 095°06'5 5.3
2016-Feb-04 01:33N 29°42' W 095°01'1110.9
2016-Feb-04 00:34N 29°33' W 094°54'1212.2
2016-Feb-03 23:33N 29°22' W 094°48'18 0.9
2016-Feb-03 03:26N 29°14' W 094°29'2410.5
2016-Feb-03 01:07N 28°50' W 094°24'914.0
2016-Feb-03 00:30N 28°42' W 094°24'1313.9
2016-Feb-02 23:33N 28°29' W 094°24'  
2016-Jan-30 16:10N 25°48' W 079°34'711.6
2016-Jan-30 15:33N 25°54' W 079°32'1212.3
2016-Jan-30 14:33N 26°06' W 079°27'  
Track history (hours):
 
Tides and Currents Weather Stations Pressure Air Temp Water Temp Dewpoint Dewpoint Depression Visibility Wind Speed Wind Dir Waves Ship Positions

Maersk Barry

Last reported at 2016-Feb-06 10:07 UTC. Time now 2016-Feb-11 02:30 UTC.
Position N 29°21' W 094°46'.

Length 175 m; draft 7.2 m.

Type: Tanker. MMSI: 219127000.

Date/timePositionNaut miles runAvg speedWind from/ knotsBaromVisibWave heightAir tempDewpointWater temp
2016-Feb-06 10:07N 29°21' W 094°46'713.1
2016-Feb-06 09:33N 29°27' W 094°51'1212.3
2016-Feb-06 08:33N 29°38' W 094°58'10 9.7
2016-Feb-06 07:34N 29°46' W 095°04'2 0.0
2016-Feb-04 04:20N 29°45' W 095°06'0 0.0
2016-Feb-04 03:30N 29°45' W 095°06'0 0.2
2016-Feb-04 02:33N 29°45' W 095°06'5 5.3
2016-Feb-04 01:33N 29°42' W 095°01'1110.9
2016-Feb-04 00:34N 29°33' W 094°54'1212.2
2016-Feb-03 23:33N 29°22' W 094°48'18 0.9
2016-Feb-03 03:26N 29°14' W 094°29'2410.5
2016-Feb-03 01:07N 28°50' W 094°24'914.0
2016-Feb-03 00:30N 28°42' W 094°24'1313.9
2016-Feb-02 23:33N 28°29' W 094°24'  
2016-Jan-30 16:10N 25°48' W 079°34'711.6
2016-Jan-30 15:33N 25°54' W 079°32'1212.3
2016-Jan-30 14:33N 26°06' W 079°27'  

Dump ship's entire track history